sensor_id;sensor_type;location;lat;lon;timestamp;pressure;altitude;pressure_sealevel;temperature;humidity
8049;BME280;20935;42.660;23.342;2023-07-20T00:02:38;94456.13;;;26.67;37.56
8049;BME280;20935;42.660;23.342;2023-07-20T00:05:24;94460.38;;;26.68;37.87
8049;BME280;20935;42.660;23.342;2023-07-20T00:08:10;94451.41;;;26.67;37.87
8049;BME280;20935;42.660;23.342;2023-07-20T00:10:55;94443.38;;;26.63;37.81
8049;BME280;20935;42.660;23.342;2023-07-20T00:13:41;94446.13;;;26.63;37.35
8049;BME280;20935;42.660;23.342;2023-07-20T00:16:26;94448.38;;;26.65;37.69
8049;BME280;20935;42.660;23.342;2023-07-20T00:19:11;94446.13;;;26.63;37.58
8049;BME280;20935;42.660;23.342;2023-07-20T00:21:58;94458.41;;;26.62;37.79
8049;BME280;20935;42.660;23.342;2023-07-20T00:24:44;94464.38;;;26.67;37.27
8049;BME280;20935;42.660;23.342;2023-07-20T00:27:29;94461.88;;;26.69;37.28
8049;BME280;20935;42.660;23.342;2023-07-20T00:30:15;94453.63;;;26.69;37.80
8049;BME280;20935;42.660;23.342;2023-07-20T00:33:01;94454.88;;;26.68;37.14
8049;BME280;20935;42.660;23.342;2023-07-20T00:35:47;94442.41;;;26.67;37.17
8049;BME280;20935;42.660;23.342;2023-07-20T00:38:33;94447.91;;;26.67;37.02
8049;BME280;20935;42.660;23.342;2023-07-20T00:41:19;94451.88;;;26.66;37.50
8049;BME280;20935;42.660;23.342;2023-07-20T00:44:04;94449.91;;;26.66;37.56
8049;BME280;20935;42.660;23.342;2023-07-20T00:46:50;94440.91;;;26.66;37.36
8049;BME280;20935;42.660;23.342;2023-07-20T00:49:35;94443.88;;;26.68;37.29
8049;BME280;20935;42.660;23.342;2023-07-20T00:52:23;94440.16;;;26.65;37.02
8049;BME280;20935;42.660;23.342;2023-07-20T00:55:11;94435.41;;;26.66;37.16
8049;BME280;20935;42.660;23.342;2023-07-20T00:57:56;94428.41;;;26.64;36.87
8049;BME280;20935;42.660;23.342;2023-07-20T01:00:42;94423.44;;;26.63;37.32
8049;BME280;20935;42.660;23.342;2023-07-20T01:03:27;94421.94;;;26.62;37.33
8049;BME280;20935;42.660;23.342;2023-07-20T01:06:25;94427.66;;;26.64;37.09
8049;BME280;20935;42.660;23.342;2023-07-20T01:09:13;94434.66;;;26.65;37.53
8049;BME280;20935;42.660;23.342;2023-07-20T01:12:06;94439.16;;;26.62;36.80
8049;BME280;20935;42.660;23.342;2023-07-20T01:14:53;94449.41;;;26.62;37.45
8049;BME280;20935;42.660;23.342;2023-07-20T01:17:39;94456.91;;;26.61;37.43
8049;BME280;20935;42.660;23.342;2023-07-20T01:20:25;94452.41;;;26.58;37.05
8049;BME280;20935;42.660;23.342;2023-07-20T01:23:33;94441.66;;;26.60;37.27
8049;BME280;20935;42.660;23.342;2023-07-20T01:26:38;94445.66;;;26.59;37.19
8049;BME280;20935;42.660;23.342;2023-07-20T01:29:44;94433.41;;;26.60;37.02
8049;BME280;20935;42.660;23.342;2023-07-20T01:32:42;94437.41;;;26.59;36.86
8049;BME280;20935;42.660;23.342;2023-07-20T01:35:29;94443.44;;;26.58;36.92
8049;BME280;20935;42.660;23.342;2023-07-20T01:38:16;94450.16;;;26.57;36.87
8049;BME280;20935;42.660;23.342;2023-07-20T01:41:03;94446.66;;;26.56;37.05
8049;BME280;20935;42.660;23.342;2023-07-20T01:43:48;94447.41;;;26.57;37.05
8049;BME280;20935;42.660;23.342;2023-07-20T01:46:34;94440.94;;;26.54;36.92
8049;BME280;20935;42.660;23.342;2023-07-20T01:49:21;94441.22;;;26.51;36.91
8049;BME280;20935;42.660;23.342;2023-07-20T01:52:06;94433.72;;;26.51;37.09
8049;BME280;20935;42.660;23.342;2023-07-20T01:54:52;94440.47;;;26.50;36.86
8049;BME280;20935;42.660;23.342;2023-07-20T01:57:37;94441.44;;;26.53;36.68
8049;BME280;20935;42.660;23.342;2023-07-20T02:00:23;94442.44;;;26.50;36.91
8049;BME280;20935;42.660;23.342;2023-07-20T02:03:09;94437.19;;;26.52;37.08
8049;BME280;20935;42.660;23.342;2023-07-20T02:05:57;94427.22;;;26.49;36.69
8049;BME280;20935;42.660;23.342;2023-07-20T02:08:43;94424.47;;;26.49;37.10
8049;BME280;20935;42.660;23.342;2023-07-20T02:11:28;94430.47;;;26.47;36.80
8049;BME280;20935;42.660;23.342;2023-07-20T02:14:14;94421.97;;;26.45;37.01
8049;BME280;20935;42.660;23.342;2023-07-20T02:16:59;94427.97;;;26.49;36.88
8049;BME280;20935;42.660;23.342;2023-07-20T02:19:45;94425.47;;;26.46;37.02
8049;BME280;20935;42.660;23.342;2023-07-20T02:22:34;94435.44;;;26.49;36.85
8049;BME280;20935;42.660;23.342;2023-07-20T02:25:20;94429.22;;;26.48;36.91
8049;BME280;20935;42.660;23.342;2023-07-20T02:28:07;94429.72;;;26.47;36.84
8049;BME280;20935;42.660;23.342;2023-07-20T02:30:52;94425.97;;;26.44;36.89
8049;BME280;20935;42.660;23.342;2023-07-20T02:33:37;94424.72;;;26.45;36.68
8049;BME280;20935;42.660;23.342;2023-07-20T02:36:23;94431.25;;;26.42;36.70
8049;BME280;20935;42.660;23.342;2023-07-20T02:39:09;94423.22;;;26.44;37.02
8049;BME280;20935;42.660;23.342;2023-07-20T02:41:55;94416.97;;;26.44;36.63
8049;BME280;20935;42.660;23.342;2023-07-20T02:44:40;94402.53;;;26.43;36.89
8049;BME280;20935;42.660;23.342;2023-07-20T02:47:26;94403.78;;;26.42;36.78
8049;BME280;20935;42.660;23.342;2023-07-20T02:50:11;94403.00;;;26.42;37.01
8049;BME280;20935;42.660;23.342;2023-07-20T02:52:58;94396.78;;;26.41;36.49
8049;BME280;20935;42.660;23.342;2023-07-20T02:55:44;94392.53;;;26.40;37.00
8049;BME280;20935;42.660;23.342;2023-07-20T02:58:33;94405.00;;;26.41;36.60
8049;BME280;20935;42.660;23.342;2023-07-20T03:01:21;94404.25;;;26.41;36.42
8049;BME280;20935;42.660;23.342;2023-07-20T03:04:07;94403.00;;;26.42;36.90
8049;BME280;20935;42.660;23.342;2023-07-20T03:06:54;94404.78;;;26.39;36.91
8049;BME280;20935;42.660;23.342;2023-07-20T03:09:39;94405.00;;;26.41;36.19
8049;BME280;20935;42.660;23.342;2023-07-20T03:12:26;94403.50;;;26.40;36.85
8049;BME280;20935;42.660;23.342;2023-07-20T03:15:12;94410.28;;;26.39;36.64
8049;BME280;20935;42.660;23.342;2023-07-20T03:17:57;94407.03;;;26.35;36.47
8049;BME280;20935;42.660;23.342;2023-07-20T03:20:43;94413.25;;;26.36;36.53
8049;BME280;20935;42.660;23.342;2023-07-20T03:23:28;94416.75;;;26.36;36.80
8049;BME280;20935;42.660;23.342;2023-07-20T03:26:14;94420.03;;;26.35;36.22
8049;BME280;20935;42.660;23.342;2023-07-20T03:29:01;94430.00;;;26.32;36.98
8049;BME280;20935;42.660;23.342;2023-07-20T03:31:46;94430.00;;;26.32;36.52
8049;BME280;20935;42.660;23.342;2023-07-20T03:34:32;94425.53;;;26.35;36.57
8049;BME280;20935;42.660;23.342;2023-07-20T03:37:17;94418.53;;;26.34;36.60
8049;BME280;20935;42.660;23.342;2023-07-20T03:40:04;94417.78;;;26.33;36.44
8049;BME280;20935;42.660;23.342;2023-07-20T03:42:51;94415.78;;;26.34;36.71
8049;BME280;20935;42.660;23.342;2023-07-20T03:45:38;94423.25;;;26.33;36.68
8049;BME280;20935;42.660;23.342;2023-07-20T03:48:24;94424.00;;;26.34;36.93
8049;BME280;20935;42.660;23.342;2023-07-20T03:51:09;94430.25;;;26.34;36.41
8049;BME280;20935;42.660;23.342;2023-07-20T03:53:55;94428.75;;;26.33;36.64
8049;BME280;20935;42.660;23.342;2023-07-20T03:56:40;94428.00;;;26.33;36.40
8049;BME280;20935;42.660;23.342;2023-07-20T03:59:26;94427.25;;;26.32;36.48
8049;BME280;20935;42.660;23.342;2023-07-20T04:02:13;94432.75;;;26.32;36.55
8049;BME280;20935;42.660;23.342;2023-07-20T04:04:58;94434.25;;;26.33;36.67
8049;BME280;20935;42.660;23.342;2023-07-20T04:07:43;94430.00;;;26.32;36.44
8049;BME280;20935;42.660;23.342;2023-07-20T04:10:29;94420.53;;;26.33;36.39
8049;BME280;20935;42.660;23.342;2023-07-20T04:13:14;94419.75;;;26.33;36.59
8049;BME280;20935;42.660;23.342;2023-07-20T04:16:00;94424.50;;;26.32;36.55
8049;BME280;20935;42.660;23.342;2023-07-20T04:18:48;94411.78;;;26.29;36.71
8049;BME280;20935;42.660;23.342;2023-07-20T04:21:33;94411.78;;;26.29;36.53
8049;BME280;20935;42.660;23.342;2023-07-20T04:24:18;94411.28;;;26.31;36.53
8049;BME280;20935;42.660;23.342;2023-07-20T04:27:04;94414.78;;;26.31;36.46
8049;BME280;20935;42.660;23.342;2023-07-20T04:29:50;94414.53;;;26.29;36.53
8049;BME280;20935;42.660;23.342;2023-07-20T04:32:35;94410.53;;;26.30;36.70
8049;BME280;20935;42.660;23.342;2023-07-20T04:35:46;94405.81;;;26.31;36.66
8049;BME280;20935;42.660;23.342;2023-07-20T04:38:32;94412.53;;;26.30;36.56
8049;BME280;20935;42.660;23.342;2023-07-20T04:41:18;94405.28;;;26.32;36.69
8049;BME280;20935;42.660;23.342;2023-07-20T04:44:04;94394.81;;;26.31;36.42
8049;BME280;20935;42.660;23.342;2023-07-20T04:46:50;94405.81;;;26.31;36.41
8049;BME280;20935;42.660;23.342;2023-07-20T04:49:35;94399.03;;;26.32;36.81
8049;BME280;20935;42.660;23.342;2023-07-20T04:52:22;94398.06;;;26.29;36.70
8049;BME280;20935;42.660;23.342;2023-07-20T04:55:08;94397.31;;;26.29;36.55
8049;BME280;20935;42.660;23.342;2023-07-20T04:57:53;94402.81;;;26.29;36.88
8049;BME280;20935;42.660;23.342;2023-07-20T05:00:38;94397.56;;;26.31;36.39
8049;BME280;20935;42.660;23.342;2023-07-20T05:03:24;94391.31;;;26.30;36.69
8049;BME280;20935;42.660;23.342;2023-07-20T05:06:10;94398.81;;;26.30;36.79
8049;BME280;20935;42.660;23.342;2023-07-20T05:08:57;94395.56;;;26.31;36.55
8049;BME280;20935;42.660;23.342;2023-07-20T05:11:43;94394.28;;;26.32;36.52
8049;BME280;20935;42.660;23.342;2023-07-20T05:14:29;94395.56;;;26.31;36.68
8049;BME280;20935;42.660;23.342;2023-07-20T05:17:15;94403.81;;;26.31;36.72
8049;BME280;20935;42.660;23.342;2023-07-20T05:20:00;94396.56;;;26.28;36.51
8049;BME280;20935;42.660;23.342;2023-07-20T05:22:46;94405.81;;;26.31;36.39
8049;BME280;20935;42.660;23.342;2023-07-20T05:25:33;94408.03;;;26.32;36.65
8049;BME280;20935;42.660;23.342;2023-07-20T05:28:18;94399.78;;;26.32;36.59
8049;BME280;20935;42.660;23.342;2023-07-20T05:31:04;94411.28;;;26.31;36.98
8049;BME280;20935;42.660;23.342;2023-07-20T05:33:50;94414.03;;;26.31;36.46
8049;BME280;20935;42.660;23.342;2023-07-20T05:36:36;94414.53;;;26.29;37.03
8049;BME280;20935;42.660;23.342;2023-07-20T05:39:35;94417.53;;;26.31;36.67
8049;BME280;20935;42.660;23.342;2023-07-20T05:42:21;94407.81;;;26.30;36.38
8049;BME280;20935;42.660;23.342;2023-07-20T05:45:07;94418.25;;;26.32;36.53
8049;BME280;20935;42.660;23.342;2023-07-20T05:47:53;94416.03;;;26.30;36.78
8049;BME280;20935;42.660;23.342;2023-07-20T05:50:41;94426.00;;;26.33;36.56
8049;BME280;20935;42.660;23.342;2023-07-20T05:53:27;94426.75;;;26.34;36.95
8049;BME280;20935;42.660;23.342;2023-07-20T05:56:13;94429.50;;;26.34;36.80
8049;BME280;20935;42.660;23.342;2023-07-20T05:59:00;94426.00;;;26.33;36.89
8049;BME280;20935;42.660;23.342;2023-07-20T06:01:46;94419.28;;;26.34;36.80
8049;BME280;20935;42.660;23.342;2023-07-20T06:04:32;94416.53;;;26.34;36.93
8049;BME280;20935;42.660;23.342;2023-07-20T06:07:17;94423.25;;;26.33;36.66
8049;BME280;20935;42.660;23.342;2023-07-20T06:10:04;94418.25;;;26.32;36.85
8049;BME280;20935;42.660;23.342;2023-07-20T06:12:50;94422.03;;;26.34;36.86
8049;BME280;20935;42.660;23.342;2023-07-20T06:15:37;94406.56;;;26.31;36.95
8049;BME280;20935;42.660;23.342;2023-07-20T06:18:23;94417.53;;;26.31;36.82
8049;BME280;20935;42.660;23.342;2023-07-20T06:21:08;94413.25;;;26.36;36.85
8049;BME280;20935;42.660;23.342;2023-07-20T06:23:54;94400.03;;;26.34;36.79
8049;BME280;20935;42.660;23.342;2023-07-20T06:26:40;94395.31;;;26.35;36.68
8049;BME280;20935;42.660;23.342;2023-07-20T06:29:25;94394.78;;;26.36;37.26
8049;BME280;20935;42.660;23.342;2023-07-20T06:32:12;94395.53;;;26.37;37.15
8049;BME280;20935;42.660;23.342;2023-07-20T06:34:58;94398.28;;;26.37;36.96
8049;BME280;20935;42.660;23.342;2023-07-20T06:37:43;94401.78;;;26.37;36.82
8049;BME280;20935;42.660;23.342;2023-07-20T06:40:29;94397.53;;;26.36;37.12
8049;BME280;20935;42.660;23.342;2023-07-20T06:43:14;94396.06;;;26.35;37.20
8049;BME280;20935;42.660;23.342;2023-07-20T06:46:00;94399.03;;;26.37;36.68
8049;BME280;20935;42.660;23.342;2023-07-20T06:48:46;94403.78;;;26.37;37.18
8049;BME280;20935;42.660;23.342;2023-07-20T06:51:32;94396.28;;;26.37;37.20
8049;BME280;20935;42.660;23.342;2023-07-20T06:54:18;94391.06;;;26.39;37.22
8049;BME280;20935;42.660;23.342;2023-07-20T06:57:05;94397.75;;;26.44;37.67
8049;BME280;20935;42.660;23.342;2023-07-20T06:59:50;94406.50;;;26.42;37.56
8049;BME280;20935;42.660;23.342;2023-07-20T07:02:36;94413.75;;;26.45;37.65
8049;BME280;20935;42.660;23.342;2023-07-20T07:05:23;94421.97;;;26.45;37.61
8049;BME280;20935;42.660;23.342;2023-07-20T07:08:08;94423.47;;;26.46;38.04
8049;BME280;20935;42.660;23.342;2023-07-20T07:10:54;94422.72;;;26.46;37.70
8049;BME280;20935;42.660;23.342;2023-07-20T07:13:39;94430.22;;;26.45;37.97
8049;BME280;20935;42.660;23.342;2023-07-20T07:16:25;94435.22;;;26.47;38.12
8049;BME280;20935;42.660;23.342;2023-07-20T07:19:10;94443.97;;;26.45;37.71
8049;BME280;20935;42.660;23.342;2023-07-20T07:21:57;94462.22;;;26.43;37.75
8049;BME280;20935;42.660;23.342;2023-07-20T07:24:42;94467.69;;;26.43;38.02
8049;BME280;20935;42.660;23.342;2023-07-20T07:27:28;94468.94;;;26.42;38.37
8049;BME280;20935;42.660;23.342;2023-07-20T07:30:13;94462.69;;;26.41;37.80
8049;BME280;20935;42.660;23.342;2023-07-20T07:32:58;94472.44;;;26.42;37.73
8049;BME280;20935;42.660;23.342;2023-07-20T07:35:44;94461.47;;;26.42;37.95
8049;BME280;20935;42.660;23.342;2023-07-20T07:38:30;94453.72;;;26.41;37.92
8049;BME280;20935;42.660;23.342;2023-07-20T07:41:16;94451.47;;;26.39;38.22
8049;BME280;20935;42.660;23.342;2023-07-20T07:44:01;94446.22;;;26.41;38.08
8049;BME280;20935;42.660;23.342;2023-07-20T07:46:46;94453.72;;;26.41;38.08
8049;BME280;20935;42.660;23.342;2023-07-20T07:49:32;94453.72;;;26.41;38.16
8049;BME280;20935;42.660;23.342;2023-07-20T07:52:17;94428.22;;;26.40;37.80
8049;BME280;20935;42.660;23.342;2023-07-20T07:55:05;94402.03;;;26.39;38.01
8049;BME280;20935;42.660;23.342;2023-07-20T07:57:51;94400.53;;;26.38;38.35
8049;BME280;20935;42.660;23.342;2023-07-20T08:00:36;94417.50;;;26.42;38.12
8049;BME280;20935;42.660;23.342;2023-07-20T08:03:22;94414.50;;;26.40;38.21
8049;BME280;20935;42.660;23.342;2023-07-20T08:06:08;94411.53;;;26.38;38.17
8049;BME280;20935;42.660;23.342;2023-07-20T08:08:54;94435.72;;;26.40;38.43
8049;BME280;20935;42.660;23.342;2023-07-20T08:11:41;94436.25;;;26.38;38.40
8049;BME280;20935;42.660;23.342;2023-07-20T08:14:26;94465.44;;;26.41;38.37
8049;BME280;20935;42.660;23.342;2023-07-20T08:17:12;94470.69;;;26.45;38.51
8049;BME280;20935;42.660;23.342;2023-07-20T08:19:57;94464.44;;;26.44;38.27
8049;BME280;20935;42.660;23.342;2023-07-20T08:22:43;94465.94;;;26.45;38.37
8049;BME280;20935;42.660;23.342;2023-07-20T08:25:28;94467.44;;;26.46;38.94
8049;BME280;20935;42.660;23.342;2023-07-20T08:28:16;94465.94;;;26.45;38.72
8049;BME280;20935;42.660;23.342;2023-07-20T08:31:01;94470.41;;;26.48;39.19
8049;BME280;20935;42.660;23.342;2023-07-20T08:33:47;94468.44;;;26.49;38.98
8049;BME280;20935;42.660;23.342;2023-07-20T08:36:32;94478.16;;;26.50;38.65
8049;BME280;20935;42.660;23.342;2023-07-20T08:39:18;94479.19;;;26.47;39.14
8049;BME280;20935;42.660;23.342;2023-07-20T08:42:06;94470.94;;;26.47;39.02
8049;BME280;20935;42.660;23.342;2023-07-20T08:44:56;94467.94;;;26.50;39.24
8049;BME280;20935;42.660;23.342;2023-07-20T08:47:43;94455.44;;;26.49;39.15
8049;BME280;20935;42.660;23.342;2023-07-20T08:50:30;94455.44;;;26.49;39.10
8049;BME280;20935;42.660;23.342;2023-07-20T08:53:16;94456.44;;;26.46;39.39
8049;BME280;20935;42.660;23.342;2023-07-20T08:56:02;94452.69;;;26.49;39.21
8049;BME280;20935;42.660;23.342;2023-07-20T08:58:48;94450.19;;;26.51;39.34
8049;BME280;20935;42.660;23.342;2023-07-20T09:01:36;94441.22;;;26.45;39.02
8049;BME280;20935;42.660;23.342;2023-07-20T09:04:21;94435.22;;;26.47;38.92
8049;BME280;20935;42.660;23.342;2023-07-20T09:07:06;94439.69;;;26.50;38.74
8049;BME280;20935;42.660;23.342;2023-07-20T09:09:52;94429.22;;;26.48;39.20
8049;BME280;20935;42.660;23.342;2023-07-20T09:12:38;94436.22;;;26.49;39.15
8049;BME280;20935;42.660;23.342;2023-07-20T09:15:25;94442.19;;;26.53;38.72
8049;BME280;20935;42.660;23.342;2023-07-20T09:18:12;94447.69;;;26.53;39.79
8049;BME280;20935;42.660;23.342;2023-07-20T09:21:02;94436.69;;;26.53;39.71
8049;BME280;20935;42.660;23.342;2023-07-20T09:23:48;94422.97;;;26.53;39.76
8049;BME280;20935;42.660;23.342;2023-07-20T09:26:40;94426.94;;;26.52;39.70
8049;BME280;20935;42.660;23.342;2023-07-20T09:29:26;94425.94;;;26.55;40.03
8049;BME280;20935;42.660;23.342;2023-07-20T09:32:11;94426.94;;;26.58;39.45
8049;BME280;20935;42.660;23.342;2023-07-20T09:34:58;94423.72;;;26.54;39.91
8049;BME280;20935;42.660;23.342;2023-07-20T09:37:50;94423.19;;;26.55;39.37
8049;BME280;20935;42.660;23.342;2023-07-20T09:40:38;94430.72;;;26.55;39.72
8049;BME280;20935;42.660;23.342;2023-07-20T09:43:28;94420.69;;;26.57;39.72
8049;BME280;20935;42.660;23.342;2023-07-20T09:46:14;94415.19;;;26.57;39.56
8049;BME280;20935;42.660;23.342;2023-07-20T09:49:01;94407.69;;;26.58;39.62
8049;BME280;20935;42.660;23.342;2023-07-20T09:51:48;94415.44;;;26.59;39.37
8049;BME280;20935;42.660;23.342;2023-07-20T09:54:37;94404.44;;;26.59;39.34
8049;BME280;20935;42.660;23.342;2023-07-20T09:57:24;94389.44;;;26.60;39.89
8049;BME280;20935;42.660;23.342;2023-07-20T10:00:13;94377.22;;;26.61;39.65
8049;BME280;20935;42.660;23.342;2023-07-20T10:03:03;94372.47;;;26.62;39.10
8049;BME280;20935;42.660;23.342;2023-07-20T10:05:52;94384.22;;;26.62;39.42
8049;BME280;20935;42.660;23.342;2023-07-20T10:08:41;94381.19;;;26.60;39.49
8049;BME280;20935;42.660;23.342;2023-07-20T10:11:30;94383.94;;;26.60;39.74
8049;BME280;20935;42.660;23.342;2023-07-20T10:14:20;94395.19;;;26.62;39.32
8049;BME280;20935;42.660;23.342;2023-07-20T10:17:06;94391.69;;;26.62;39.66
8049;BME280;20935;42.660;23.342;2023-07-20T10:19:56;94385.44;;;26.61;39.59
8049;BME280;20935;42.660;23.342;2023-07-20T10:22:43;94389.22;;;26.58;39.84
8049;BME280;20935;42.660;23.342;2023-07-20T10:25:32;94394.41;;;26.68;40.39
8049;BME280;20935;42.660;23.342;2023-07-20T10:28:22;94401.41;;;26.69;40.31
8049;BME280;20935;42.660;23.342;2023-07-20T10:31:09;94402.66;;;26.68;40.15
8049;BME280;20935;42.660;23.342;2023-07-20T10:33:56;94387.66;;;26.69;40.07
8049;BME280;20935;42.660;23.342;2023-07-20T10:36:46;94379.66;;;26.71;40.21
8049;BME280;20935;42.660;23.342;2023-07-20T10:39:34;94389.91;;;26.70;40.46
8049;BME280;20935;42.660;23.342;2023-07-20T10:42:21;94390.41;;;26.74;39.94
8049;BME280;20935;42.660;23.342;2023-07-20T10:45:07;94391.16;;;26.75;40.11
8049;BME280;20935;42.660;23.342;2023-07-20T10:47:56;94358.91;;;26.75;39.95
8049;BME280;20935;42.660;23.342;2023-07-20T10:50:42;94318.69;;;26.72;40.21
8049;BME280;20935;42.660;23.342;2023-07-20T10:53:29;94310.69;;;26.74;40.78
8049;BME280;20935;42.660;23.342;2023-07-20T10:56:15;94358.66;;;26.73;40.16
8049;BME280;20935;42.660;23.342;2023-07-20T10:59:17;94359.91;;;26.72;40.06
8049;BME280;20935;42.660;23.342;2023-07-20T11:02:06;94332.69;;;26.69;40.08
8049;BME280;20935;42.660;23.342;2023-07-20T11:04:52;94323.97;;;26.70;39.92
8049;BME280;20935;42.660;23.342;2023-07-20T11:07:38;94321.97;;;26.65;39.94
8049;BME280;20935;42.660;23.342;2023-07-20T11:10:23;94317.22;;;26.66;39.60
8049;BME280;20935;42.660;23.342;2023-07-20T11:13:19;94318.72;;;26.67;39.60
8049;BME280;20935;42.660;23.342;2023-07-20T11:16:06;94309.50;;;26.64;39.39
8049;BME280;20935;42.660;23.342;2023-07-20T11:18:52;94315.72;;;26.64;39.17
8049;BME280;20935;42.660;23.342;2023-07-20T11:21:40;94311.97;;;26.68;39.18
8049;BME280;20935;42.660;23.342;2023-07-20T11:24:26;94313.47;;;26.69;39.85
8049;BME280;20935;42.660;23.342;2023-07-20T11:27:11;94303.00;;;26.67;39.55
8049;BME280;20935;42.660;23.342;2023-07-20T11:29:56;94307.00;;;26.66;39.37
8049;BME280;20935;42.660;23.342;2023-07-20T11:32:48;94292.50;;;26.66;39.25
8049;BME280;20935;42.660;23.342;2023-07-20T11:35:35;94303.50;;;26.66;39.39
8049;BME280;20935;42.660;23.342;2023-07-20T11:38:23;94295.75;;;26.64;39.58
8049;BME280;20935;42.660;23.342;2023-07-20T11:41:09;94288.25;;;26.64;38.99
8049;BME280;20935;42.660;23.342;2023-07-20T11:43:54;94281.25;;;26.63;39.28
8049;BME280;20935;42.660;23.342;2023-07-20T11:46:41;94283.28;;;26.63;39.18
8049;BME280;20935;42.660;23.342;2023-07-20T11:49:29;94271.53;;;26.62;39.00
8049;BME280;20935;42.660;23.342;2023-07-20T11:52:16;94272.28;;;26.63;39.03
8049;BME280;20935;42.660;23.342;2023-07-20T11:55:03;94273.28;;;26.60;38.87
8049;BME280;20935;42.660;23.342;2023-07-20T11:58:01;94264.28;;;26.65;39.01
8049;BME280;20935;42.660;23.342;2023-07-20T12:00:47;94252.31;;;26.62;38.79
8049;BME280;20935;42.660;23.342;2023-07-20T12:03:32;94249.56;;;26.62;38.95
8049;BME280;20935;42.660;23.342;2023-07-20T12:06:23;94250.81;;;26.61;39.08
8049;BME280;20935;42.660;23.342;2023-07-20T12:09:13;94246.06;;;26.62;39.04
8049;BME280;20935;42.660;23.342;2023-07-20T12:11:59;94251.56;;;26.62;38.99
8049;BME280;20935;42.660;23.342;2023-07-20T12:14:44;94243.06;;;26.60;38.75
8049;BME280;20935;42.660;23.342;2023-07-20T12:17:32;94249.84;;;26.59;38.98
8049;BME280;20935;42.660;23.342;2023-07-20T12:20:28;94239.81;;;26.61;38.69
8049;BME280;20935;42.660;23.342;2023-07-20T12:23:18;94237.56;;;26.60;38.83
8049;BME280;20935;42.660;23.342;2023-07-20T12:26:06;94244.28;;;26.64;38.92
8049;BME280;20935;42.660;23.342;2023-07-20T12:28:53;94247.03;;;26.64;38.76
8049;BME280;20935;42.660;23.342;2023-07-20T12:31:38;94238.56;;;26.62;39.25
8049;BME280;20935;42.660;23.342;2023-07-20T12:34:23;94235.28;;;26.64;39.04
8049;BME280;20935;42.660;23.342;2023-07-20T12:37:09;94224.81;;;26.62;38.75
8049;BME280;20935;42.660;23.342;2023-07-20T12:39:56;94227.03;;;26.64;39.27
8049;BME280;20935;42.660;23.342;2023-07-20T12:42:41;94233.81;;;26.63;38.78
8049;BME280;20935;42.660;23.342;2023-07-20T12:45:26;94223.56;;;26.63;38.69
8049;BME280;20935;42.660;23.342;2023-07-20T12:48:12;94223.06;;;26.65;38.93
8049;BME280;20935;42.660;23.342;2023-07-20T12:50:57;94237.53;;;26.66;38.93
8049;BME280;20935;42.660;23.342;2023-07-20T12:53:44;94227.78;;;26.64;39.46
8049;BME280;20935;42.660;23.342;2023-07-20T12:56:30;94231.00;;;26.69;39.69
8049;BME280;20935;42.660;23.342;2023-07-20T12:59:15;94221.69;;;26.83;41.31
8049;BME280;20935;42.660;23.342;2023-07-20T13:02:01;94226.66;;;26.90;39.59
8049;BME280;20935;42.660;23.342;2023-07-20T13:04:46;94220.91;;;26.88;39.54
8049;BME280;20935;42.660;23.342;2023-07-20T13:07:33;94221.69;;;26.83;39.93
8049;BME280;20935;42.660;23.342;2023-07-20T13:10:19;94221.94;;;26.85;39.71
8049;BME280;20935;42.660;23.342;2023-07-20T13:13:05;94219.19;;;26.85;40.04
8049;BME280;20935;42.660;23.342;2023-07-20T13:15:51;94208.94;;;26.85;39.79
8049;BME280;20935;42.660;23.342;2023-07-20T13:18:38;94221.44;;;26.86;40.11
8049;BME280;20935;42.660;23.342;2023-07-20T13:21:23;94214.94;;;26.84;40.23
8049;BME280;20935;42.660;23.342;2023-07-20T13:24:09;94215.44;;;26.82;40.05
8049;BME280;20935;42.660;23.342;2023-07-20T13:26:54;94216.19;;;26.83;39.79
8049;BME280;20935;42.660;23.342;2023-07-20T13:29:41;94215.69;;;26.84;39.72
8049;BME280;20935;42.660;23.342;2023-07-20T13:32:27;94207.19;;;26.82;39.97
8049;BME280;20935;42.660;23.342;2023-07-20T13:35:13;94206.44;;;26.82;39.88
8049;BME280;20935;42.660;23.342;2023-07-20T13:37:58;94213.19;;;26.81;40.03
8049;BME280;20935;42.660;23.342;2023-07-20T13:40:44;94213.94;;;26.81;40.13
8049;BME280;20935;42.660;23.342;2023-07-20T13:43:29;94206.44;;;26.82;39.74
8049;BME280;20935;42.660;23.342;2023-07-20T13:46:16;94199.69;;;26.83;39.70
8049;BME280;20935;42.660;23.342;2023-07-20T13:49:01;94195.19;;;26.85;39.41
8049;BME280;20935;42.660;23.342;2023-07-20T13:51:47;94182.19;;;26.86;39.61
8049;BME280;20935;42.660;23.342;2023-07-20T13:54:32;94196.16;;;26.88;39.49
8049;BME280;20935;42.660;23.342;2023-07-20T13:57:18;94199.44;;;26.86;39.89
8049;BME280;20935;42.660;23.342;2023-07-20T14:00:04;94194.69;;;26.87;39.27
8049;BME280;20935;42.660;23.342;2023-07-20T14:02:53;94194.69;;;26.87;39.87
8049;BME280;20935;42.660;23.342;2023-07-20T14:05:39;94194.41;;;26.90;39.26
8049;BME280;20935;42.660;23.342;2023-07-20T14:08:24;94200.19;;;26.87;40.03
8049;BME280;20935;42.660;23.342;2023-07-20T14:11:09;94201.16;;;26.89;39.84
8049;BME280;20935;42.660;23.342;2023-07-20T14:13:55;94203.41;;;26.91;39.77
8049;BME280;20935;42.660;23.342;2023-07-20T14:16:42;94195.66;;;26.89;39.20
8049;BME280;20935;42.660;23.342;2023-07-20T14:19:29;94207.41;;;26.90;39.80
8049;BME280;20935;42.660;23.342;2023-07-20T14:22:14;94203.41;;;26.91;39.80
8049;BME280;20935;42.660;23.342;2023-07-20T14:25:00;94202.13;;;26.92;39.42
8049;BME280;20935;42.660;23.342;2023-07-20T14:27:46;94193.88;;;26.92;39.64
8049;BME280;20935;42.660;23.342;2023-07-20T14:30:31;94200.88;;;26.93;39.75
8049;BME280;20935;42.660;23.342;2023-07-20T14:33:16;94206.66;;;26.89;39.52
8049;BME280;20935;42.660;23.342;2023-07-20T14:36:03;94209.16;;;26.87;39.61
8049;BME280;20935;42.660;23.342;2023-07-20T14:38:49;94211.41;;;26.89;39.54
8049;BME280;20935;42.660;23.342;2023-07-20T14:41:34;94205.91;;;26.89;39.58
8049;BME280;20935;42.660;23.342;2023-07-20T14:44:20;94206.66;;;26.89;39.44